Galveston Highway — 3FAJ5 — position and weather

sailwx.info

Track history (hours):
 
Tides and Currents Weather Stations Pressure Air Temp Water Temp Dewpoint Dewpoint Depression Visibility Wind Speed Wind Dir Waves Ship Positions

Galveston Highway

Last reported at 2018-Jan-18 19:06 UTC. Time now 2018-Jan-22 20:31 UTC.
Position N 31°05' E 122°32'.

Length 199 m; draft 8.4 m.

Type: Cargo ship. MMSI: 353100000.

Date/timePositionNaut miles runAvg speedWind from/ knotsBaromVisibWave heightAir tempDewpointWater temp
2018-Jan-18 19:06N 31°05' E 122°32'215.5
2018-Jan-18 18:59N 31°05' E 122°29'511.0
2018-Jan-18 18:30N 31°06' E 122°23'613.1
2018-Jan-18 18:00N 31°07' E 122°16'713.8
2018-Jan-18 17:30N 31°12' E 122°09'714.1
2018-Jan-18 16:59N 31°14' E 122°02'714.2
2018-Jan-18 16:30N 31°16' E 121°54'713.7
2018-Jan-18 16:00N 31°18' E 121°46'4 7.7
2018-Jan-18 15:30N 31°19' E 121°42'1 1.3
2018-Jan-18 14:53N 31°19' E 121°41'0 0.0
2018-Jan-18 14:27N 31°19' E 121°41'0 0.0
2018-Jan-18 13:24N 31°19' E 121°41'0 0.0
2018-Jan-18 07:04N 31°19' E 121°41'0 0.0
2018-Jan-18 06:55N 31°19' E 121°41'1 0.5
2018-Jan-18 05:25N 31°20' E 121°42'3 7.2
2018-Jan-18 05:00N 31°19' E 121°45'4 7.9
2018-Jan-18 04:30N 31°17' E 121°49'5 8.5
2018-Jan-18 03:58N 31°16' E 121°54'6 9.2
2018-Jan-18 03:18N 31°15' E 122°01'5 9.7
2018-Jan-18 02:49N 31°13' E 122°06'411.1
2018-Jan-18 02:26N 31°11' E 122°10'4 8.6
2018-Jan-18 01:59N 31°09' E 122°14'4 7.5
2018-Jan-18 01:27N 31°06' E 122°18'4 6.9
2018-Jan-18 00:54N 31°06' E 122°23'9 6.1
2018-Jan-17 23:28N 31°07' E 122°33'  
Track history (hours):
 
Tides and Currents Weather Stations Pressure Air Temp Water Temp Dewpoint Dewpoint Depression Visibility Wind Speed Wind Dir Waves Ship Positions

Galveston Highway

Last reported at 2018-Jan-18 19:06 UTC. Time now 2018-Jan-22 20:31 UTC.
Position N 31°05' E 122°32'.

Length 199 m; draft 8.4 m.

Type: Cargo ship. MMSI: 353100000.

Date/timePositionNaut miles runAvg speedWind from/ knotsBaromVisibWave heightAir tempDewpointWater temp
2018-Jan-18 19:06N 31°05' E 122°32'215.5
2018-Jan-18 18:59N 31°05' E 122°29'511.0
2018-Jan-18 18:30N 31°06' E 122°23'613.1
2018-Jan-18 18:00N 31°07' E 122°16'713.8
2018-Jan-18 17:30N 31°12' E 122°09'714.1
2018-Jan-18 16:59N 31°14' E 122°02'714.2
2018-Jan-18 16:30N 31°16' E 121°54'713.7
2018-Jan-18 16:00N 31°18' E 121°46'4 7.7
2018-Jan-18 15:30N 31°19' E 121°42'1 1.3
2018-Jan-18 14:53N 31°19' E 121°41'0 0.0
2018-Jan-18 14:27N 31°19' E 121°41'0 0.0
2018-Jan-18 13:24N 31°19' E 121°41'0 0.0
2018-Jan-18 07:04N 31°19' E 121°41'0 0.0
2018-Jan-18 06:55N 31°19' E 121°41'1 0.5
2018-Jan-18 05:25N 31°20' E 121°42'3 7.2
2018-Jan-18 05:00N 31°19' E 121°45'4 7.9
2018-Jan-18 04:30N 31°17' E 121°49'5 8.5
2018-Jan-18 03:58N 31°16' E 121°54'6 9.2
2018-Jan-18 03:18N 31°15' E 122°01'5 9.7
2018-Jan-18 02:49N 31°13' E 122°06'411.1
2018-Jan-18 02:26N 31°11' E 122°10'4 8.6
2018-Jan-18 01:59N 31°09' E 122°14'4 7.5
2018-Jan-18 01:27N 31°06' E 122°18'4 6.9
2018-Jan-18 00:54N 31°06' E 122°23'9 6.1
2018-Jan-17 23:28N 31°07' E 122°33'  

Dump ship's entire track history